sensor_id;sensor_type;location;lat;lon;timestamp;temperature;humidity
63277;DHT22;49403;51.046;13.780;2024-01-07T00:00:04;6.60;79.90
63277;DHT22;49403;51.046;13.780;2024-01-07T00:00:35;5.20;78.30
63277;DHT22;49403;51.046;13.780;2024-01-07T00:01:08;4.60;78.00
63277;DHT22;49403;51.046;13.780;2024-01-07T00:01:45;5.20;78.20
63277;DHT22;49403;51.046;13.780;2024-01-07T00:02:16;5.10;78.20
63277;DHT22;49403;51.046;13.780;2024-01-07T00:02:47;6.30;79.60
63277;DHT22;49403;51.046;13.780;2024-01-07T00:03:17;5.10;78.40
63277;DHT22;49403;51.046;13.780;2024-01-07T00:03:48;5.10;78.70
63277;DHT22;49403;51.046;13.780;2024-01-07T00:04:19;5.00;78.50
63277;DHT22;49403;51.046;13.780;2024-01-07T00:04:50;5.10;78.70
63277;DHT22;49403;51.046;13.780;2024-01-07T00:05:21;5.10;78.80
63277;DHT22;49403;51.046;13.780;2024-01-07T00:05:51;5.10;78.80
63277;DHT22;49403;51.046;13.780;2024-01-07T00:06:22;5.00;78.70
63277;DHT22;49403;51.046;13.780;2024-01-07T00:06:53;5.00;79.10
63277;DHT22;49403;51.046;13.780;2024-01-07T00:07:24;5.00;79.10
63277;DHT22;49403;51.046;13.780;2024-01-07T00:07:55;5.50;79.60
63277;DHT22;49403;51.046;13.780;2024-01-07T00:08:25;5.10;79.20
63277;DHT22;49403;51.046;13.780;2024-01-07T00:08:56;5.10;79.10
63277;DHT22;49403;51.046;13.780;2024-01-07T00:09:27;4.80;79.00
63277;DHT22;49403;51.046;13.780;2024-01-07T00:09:58;5.10;79.20
63277;DHT22;49403;51.046;13.780;2024-01-07T00:10:29;5.10;79.30
63277;DHT22;49403;51.046;13.780;2024-01-07T00:10:59;5.10;79.20
63277;DHT22;49403;51.046;13.780;2024-01-07T00:11:30;5.10;79.20
63277;DHT22;49403;51.046;13.780;2024-01-07T00:12:01;5.10;79.20
63277;DHT22;49403;51.046;13.780;2024-01-07T00:12:32;5.10;79.30
63277;DHT22;49403;51.046;13.780;2024-01-07T00:13:03;5.00;79.20
63277;DHT22;49403;51.046;13.780;2024-01-07T00:13:34;5.10;79.10
63277;DHT22;49403;51.046;13.780;2024-01-07T00:14:05;3.90;78.20
63277;DHT22;49403;51.046;13.780;2024-01-07T00:14:36;5.10;79.30
63277;DHT22;49403;51.046;13.780;2024-01-07T00:15:07;5.20;79.40
63277;DHT22;49403;51.046;13.780;2024-01-07T00:15:38;5.10;79.40
63277;DHT22;49403;51.046;13.780;2024-01-07T00:16:08;5.10;79.20
63277;DHT22;49403;51.046;13.780;2024-01-07T00:16:40;6.50;80.70
63277;DHT22;49403;51.046;13.780;2024-01-07T00:17:11;5.20;79.40
63277;DHT22;49403;51.046;13.780;2024-01-07T00:17:42;5.20;79.40
63277;DHT22;49403;51.046;13.780;2024-01-07T00:18:12;6.60;80.80
63277;DHT22;49403;51.046;13.780;2024-01-07T00:18:43;5.20;79.40
63277;DHT22;49403;51.046;13.780;2024-01-07T00:19:14;5.20;79.60
63277;DHT22;49403;51.046;13.780;2024-01-07T00:19:45;5.20;79.40
63277;DHT22;49403;51.046;13.780;2024-01-07T00:20:16;5.20;79.30
63277;DHT22;49403;51.046;13.780;2024-01-07T00:20:47;5.20;79.20
63277;DHT22;49403;51.046;13.780;2024-01-07T00:21:18;5.30;79.50
63277;DHT22;49403;51.046;13.780;2024-01-07T00:21:49;5.20;79.40
63277;DHT22;49403;51.046;13.780;2024-01-07T00:22:20;5.50;79.70
63277;DHT22;49403;51.046;13.780;2024-01-07T00:22:51;6.30;80.60
63277;DHT22;49403;51.046;13.780;2024-01-07T00:23:22;5.20;79.50
63277;DHT22;49403;51.046;13.780;2024-01-07T00:23:53;3.50;78.10
63277;DHT22;49403;51.046;13.780;2024-01-07T00:24:24;5.40;79.80
63277;DHT22;49403;51.046;13.780;2024-01-07T00:24:56;6.10;80.70
63277;DHT22;49403;51.046;13.780;2024-01-07T00:25:27;5.20;79.80
63277;DHT22;49403;51.046;13.780;2024-01-07T00:25:58;5.20;79.60
63277;DHT22;49403;51.046;13.780;2024-01-07T00:26:28;5.20;79.60
63277;DHT22;49403;51.046;13.780;2024-01-07T00:26:59;5.20;79.60
63277;DHT22;49403;51.046;13.780;2024-01-07T00:27:30;5.20;79.40
63277;DHT22;49403;51.046;13.780;2024-01-07T00:28:01;5.20;79.40
63277;DHT22;49403;51.046;13.780;2024-01-07T00:28:32;5.20;79.50
63277;DHT22;49403;51.046;13.780;2024-01-07T00:29:02;5.20;79.50
63277;DHT22;49403;51.046;13.780;2024-01-07T00:29:33;5.20;79.30
63277;DHT22;49403;51.046;13.780;2024-01-07T00:30:06;5.30;79.30
63277;DHT22;49403;51.046;13.780;2024-01-07T00:30:37;5.30;78.90
63277;DHT22;49403;51.046;13.780;2024-01-07T00:31:08;5.30;79.10
63277;DHT22;49403;51.046;13.780;2024-01-07T00:31:41;5.30;79.10
63277;DHT22;49403;51.046;13.780;2024-01-07T00:32:12;4.50;78.70
63277;DHT22;49403;51.046;13.780;2024-01-07T00:32:42;5.20;79.80
63277;DHT22;49403;51.046;13.780;2024-01-07T00:33:13;5.10;80.80
63277;DHT22;49403;51.046;13.780;2024-01-07T00:33:45;5.10;82.10
63277;DHT22;49403;51.046;13.780;2024-01-07T00:34:15;5.10;82.50
63277;DHT22;49403;51.046;13.780;2024-01-07T00:34:46;5.10;82.90
63277;DHT22;49403;51.046;13.780;2024-01-07T00:35:17;5.00;83.20
63277;DHT22;49403;51.046;13.780;2024-01-07T00:35:49;5.00;84.20
63277;DHT22;49403;51.046;13.780;2024-01-07T00:36:20;5.00;84.80
63277;DHT22;49403;51.046;13.780;2024-01-07T00:36:50;4.90;83.90
63277;DHT22;49403;51.046;13.780;2024-01-07T00:37:21;4.80;84.70
63277;DHT22;49403;51.046;13.780;2024-01-07T00:37:52;4.90;85.20
63277;DHT22;49403;51.046;13.780;2024-01-07T00:38:23;4.90;85.50
63277;DHT22;49403;51.046;13.780;2024-01-07T00:38:53;4.80;85.50
63277;DHT22;49403;51.046;13.780;2024-01-07T00:39:24;4.60;85.20
63277;DHT22;49403;51.046;13.780;2024-01-07T00:39:55;4.80;85.80
63277;DHT22;49403;51.046;13.780;2024-01-07T00:40:26;4.70;85.80
63277;DHT22;49403;51.046;13.780;2024-01-07T00:40:57;4.70;86.20
63277;DHT22;49403;51.046;13.780;2024-01-07T00:41:28;3.90;85.80
63277;DHT22;49403;51.046;13.780;2024-01-07T00:42:00;4.70;86.50
63277;DHT22;49403;51.046;13.780;2024-01-07T00:42:31;4.60;85.80
63277;DHT22;49403;51.046;13.780;2024-01-07T00:43:02;4.70;86.40
63277;DHT22;49403;51.046;13.780;2024-01-07T00:43:33;4.70;86.50
63277;DHT22;49403;51.046;13.780;2024-01-07T00:44:04;4.60;86.60
63277;DHT22;49403;51.046;13.780;2024-01-07T00:44:34;4.60;86.30
63277;DHT22;49403;51.046;13.780;2024-01-07T00:45:08;4.50;86.20
63277;DHT22;49403;51.046;13.780;2024-01-07T00:45:39;4.60;86.60
63277;DHT22;49403;51.046;13.780;2024-01-07T00:46:10;4.60;87.50
63277;DHT22;49403;51.046;13.780;2024-01-07T00:46:41;4.60;87.70
63277;DHT22;49403;51.046;13.780;2024-01-07T00:47:11;4.60;87.60
63277;DHT22;49403;51.046;13.780;2024-01-07T00:47:42;4.60;87.70
63277;DHT22;49403;51.046;13.780;2024-01-07T00:48:14;4.60;87.60
63277;DHT22;49403;51.046;13.780;2024-01-07T00:48:45;4.60;87.20
63277;DHT22;49403;51.046;13.780;2024-01-07T00:49:16;4.60;87.50
63277;DHT22;49403;51.046;13.780;2024-01-07T00:49:47;4.70;87.10
63277;DHT22;49403;51.046;13.780;2024-01-07T00:50:18;4.70;87.10
63277;DHT22;49403;51.046;13.780;2024-01-07T00:50:49;4.70;86.80
63277;DHT22;49403;51.046;13.780;2024-01-07T00:51:19;4.70;86.50
63277;DHT22;49403;51.046;13.780;2024-01-07T00:51:50;3.20;85.10
63277;DHT22;49403;51.046;13.780;2024-01-07T00:52:21;5.20;86.90
63277;DHT22;49403;51.046;13.780;2024-01-07T00:52:53;5.00;86.80
63277;DHT22;49403;51.046;13.780;2024-01-07T00:53:24;4.70;85.60
63277;DHT22;49403;51.046;13.780;2024-01-07T00:53:55;4.00;83.80
63277;DHT22;49403;51.046;13.780;2024-01-07T00:54:26;4.70;83.80
63277;DHT22;49403;51.046;13.780;2024-01-07T00:54:57;6.60;85.40
63277;DHT22;49403;51.046;13.780;2024-01-07T00:55:27;4.70;83.10
63277;DHT22;49403;51.046;13.780;2024-01-07T00:55:58;4.70;83.70
63277;DHT22;49403;51.046;13.780;2024-01-07T00:56:30;4.70;83.80
63277;DHT22;49403;51.046;13.780;2024-01-07T00:57:01;4.70;83.90
63277;DHT22;49403;51.046;13.780;2024-01-07T00:57:32;4.70;84.30
63277;DHT22;49403;51.046;13.780;2024-01-07T00:58:03;4.70;83.60
63277;DHT22;49403;51.046;13.780;2024-01-07T00:58:36;4.70;83.20
63277;DHT22;49403;51.046;13.780;2024-01-07T00:59:07;4.70;82.20
63277;DHT22;49403;51.046;13.780;2024-01-07T00:59:38;4.70;82.70
63277;DHT22;49403;51.046;13.780;2024-01-07T01:00:09;4.70;82.20
63277;DHT22;49403;51.046;13.780;2024-01-07T01:00:40;4.20;81.70
63277;DHT22;49403;51.046;13.780;2024-01-07T01:01:10;4.70;81.70
63277;DHT22;49403;51.046;13.780;2024-01-07T01:01:41;4.70;81.60
63277;DHT22;49403;51.046;13.780;2024-01-07T01:02:12;4.70;81.70
63277;DHT22;49403;51.046;13.780;2024-01-07T01:02:43;4.70;81.70
63277;DHT22;49403;51.046;13.780;2024-01-07T01:03:14;4.70;82.00
63277;DHT22;49403;51.046;13.780;2024-01-07T01:03:45;4.70;82.00
63277;DHT22;49403;51.046;13.780;2024-01-07T01:04:16;4.70;81.70
63277;DHT22;49403;51.046;13.780;2024-01-07T01:04:47;3.00;80.20
63277;DHT22;49403;51.046;13.780;2024-01-07T01:05:17;4.70;81.60
63277;DHT22;49403;51.046;13.780;2024-01-07T01:05:48;4.60;80.70
63277;DHT22;49403;51.046;13.780;2024-01-07T01:06:19;4.70;80.20
63277;DHT22;49403;51.046;13.780;2024-01-07T01:06:50;4.70;79.80
63277;DHT22;49403;51.046;13.780;2024-01-07T01:07:21;4.70;79.90
63277;DHT22;49403;51.046;13.780;2024-01-07T01:07:52;4.70;79.90
63277;DHT22;49403;51.046;13.780;2024-01-07T01:08:23;4.70;79.70
63277;DHT22;49403;51.046;13.780;2024-01-07T01:08:53;4.60;79.40
63277;DHT22;49403;51.046;13.780;2024-01-07T01:09:24;4.70;79.70
63277;DHT22;49403;51.046;13.780;2024-01-07T01:09:55;4.70;79.40
63277;DHT22;49403;51.046;13.780;2024-01-07T01:10:26;4.70;79.70
63277;DHT22;49403;51.046;13.780;2024-01-07T01:10:57;4.70;79.70
63277;DHT22;49403;51.046;13.780;2024-01-07T01:11:27;4.80;79.80
63277;DHT22;49403;51.046;13.780;2024-01-07T01:11:58;3.50;78.60
63277;DHT22;49403;51.046;13.780;2024-01-07T01:12:29;4.70;79.50
63277;DHT22;49403;51.046;13.780;2024-01-07T01:13:00;4.70;79.40
63277;DHT22;49403;51.046;13.780;2024-01-07T01:13:31;4.80;79.50
63277;DHT22;49403;51.046;13.780;2024-01-07T01:14:01;4.80;79.60
63277;DHT22;49403;51.046;13.780;2024-01-07T01:14:32;4.80;79.60
63277;DHT22;49403;51.046;13.780;2024-01-07T01:15:03;4.80;79.70
63277;DHT22;49403;51.046;13.780;2024-01-07T01:15:34;4.80;79.50
63277;DHT22;49403;51.046;13.780;2024-01-07T01:16:05;4.80;79.50
63277;DHT22;49403;51.046;13.780;2024-01-07T01:16:36;4.80;79.40
63277;DHT22;49403;51.046;13.780;2024-01-07T01:17:07;4.80;79.30
63277;DHT22;49403;51.046;13.780;2024-01-07T01:17:38;4.90;79.00
63277;DHT22;49403;51.046;13.780;2024-01-07T01:18:08;4.80;78.90
63277;DHT22;49403;51.046;13.780;2024-01-07T01:18:39;4.80;78.70
63277;DHT22;49403;51.046;13.780;2024-01-07T01:19:10;4.80;78.40
63277;DHT22;49403;51.046;13.780;2024-01-07T01:19:41;4.80;78.30
63277;DHT22;49403;51.046;13.780;2024-01-07T01:20:12;4.80;78.10
63277;DHT22;49403;51.046;13.780;2024-01-07T01:20:43;4.80;78.20
63277;DHT22;49403;51.046;13.780;2024-01-07T01:21:13;4.70;78.10
63277;DHT22;49403;51.046;13.780;2024-01-07T01:21:44;4.80;78.20
63277;DHT22;49403;51.046;13.780;2024-01-07T01:22:15;3.50;77.00
63277;DHT22;49403;51.046;13.780;2024-01-07T01:22:46;4.80;78.10
63277;DHT22;49403;51.046;13.780;2024-01-07T01:23:17;5.10;78.50
63277;DHT22;49403;51.046;13.780;2024-01-07T01:23:48;4.90;78.30
63277;DHT22;49403;51.046;13.780;2024-01-07T01:24:19;4.90;78.00
63277;DHT22;49403;51.046;13.780;2024-01-07T01:24:50;4.90;78.50
63277;DHT22;49403;51.046;13.780;2024-01-07T01:25:21;4.90;78.50
63277;DHT22;49403;51.046;13.780;2024-01-07T01:25:52;4.90;78.20
63277;DHT22;49403;51.046;13.780;2024-01-07T01:26:23;4.90;78.20
63277;DHT22;49403;51.046;13.780;2024-01-07T01:26:54;4.90;78.20
63277;DHT22;49403;51.046;13.780;2024-01-07T01:27:24;5.00;78.40
63277;DHT22;49403;51.046;13.780;2024-01-07T01:27:56;4.00;77.50
63277;DHT22;49403;51.046;13.780;2024-01-07T01:28:27;4.60;77.60
63277;DHT22;49403;51.046;13.780;2024-01-07T01:28:58;4.30;77.70
63277;DHT22;49403;51.046;13.780;2024-01-07T01:29:29;4.90;78.30
63277;DHT22;49403;51.046;13.780;2024-01-07T01:29:59;4.90;78.30
63277;DHT22;49403;51.046;13.780;2024-01-07T01:30:30;4.90;78.40
63277;DHT22;49403;51.046;13.780;2024-01-07T01:31:02;4.90;78.30
63277;DHT22;49403;51.046;13.780;2024-01-07T01:31:33;4.80;79.10
63277;DHT22;49403;51.046;13.780;2024-01-07T01:32:04;3.30;76.80
63277;DHT22;49403;51.046;13.780;2024-01-07T01:32:35;4.80;78.30
63277;DHT22;49403;51.046;13.780;2024-01-07T01:33:05;4.80;78.40
63277;DHT22;49403;51.046;13.780;2024-01-07T01:33:36;4.80;78.60
63277;DHT22;49403;51.046;13.780;2024-01-07T01:34:07;4.80;78.50
63277;DHT22;49403;51.046;13.780;2024-01-07T01:34:40;4.90;78.30
63277;DHT22;49403;51.046;13.780;2024-01-07T01:35:10;4.80;77.80
63277;DHT22;49403;51.046;13.780;2024-01-07T01:35:41;4.80;78.10
63277;DHT22;49403;51.046;13.780;2024-01-07T01:36:12;4.80;78.00
63277;DHT22;49403;51.046;13.780;2024-01-07T01:36:43;4.70;77.70
63277;DHT22;49403;51.046;13.780;2024-01-07T01:37:14;5.30;78.30
63277;DHT22;49403;51.046;13.780;2024-01-07T01:37:45;4.70;77.80
63277;DHT22;49403;51.046;13.780;2024-01-07T01:38:16;4.70;78.00
63277;DHT22;49403;51.046;13.780;2024-01-07T01:38:47;4.70;77.70
63277;DHT22;49403;51.046;13.780;2024-01-07T01:39:19;4.70;78.10
63277;DHT22;49403;51.046;13.780;2024-01-07T01:39:50;4.70;78.10
63277;DHT22;49403;51.046;13.780;2024-01-07T01:40:20;4.70;78.20
63277;DHT22;49403;51.046;13.780;2024-01-07T01:40:52;4.70;78.30
63277;DHT22;49403;51.046;13.780;2024-01-07T01:41:23;4.70;78.00
63277;DHT22;49403;51.046;13.780;2024-01-07T01:41:55;4.70;78.60
63277;DHT22;49403;51.046;13.780;2024-01-07T01:42:26;4.70;78.50
63277;DHT22;49403;51.046;13.780;2024-01-07T01:42:57;4.70;78.70
63277;DHT22;49403;51.046;13.780;2024-01-07T01:43:28;4.70;78.80
63277;DHT22;49403;51.046;13.780;2024-01-07T01:44:00;4.70;78.60
63277;DHT22;49403;51.046;13.780;2024-01-07T01:44:31;4.70;78.50
63277;DHT22;49403;51.046;13.780;2024-01-07T01:45:02;4.60;79.10
63277;DHT22;49403;51.046;13.780;2024-01-07T01:45:33;4.70;78.80
63277;DHT22;49403;51.046;13.780;2024-01-07T01:46:04;4.70;79.00
63277;DHT22;49403;51.046;13.780;2024-01-07T01:46:35;4.70;79.10
63277;DHT22;49403;51.046;13.780;2024-01-07T01:47:07;4.70;79.10
63277;DHT22;49403;51.046;13.780;2024-01-07T01:47:38;4.70;78.70
63277;DHT22;49403;51.046;13.780;2024-01-07T01:48:09;4.90;79.30
63277;DHT22;49403;51.046;13.780;2024-01-07T01:48:41;4.70;79.30
63277;DHT22;49403;51.046;13.780;2024-01-07T01:49:12;5.80;80.10
63277;DHT22;49403;51.046;13.780;2024-01-07T01:49:44;4.70;79.10
63277;DHT22;49403;51.046;13.780;2024-01-07T01:50:16;4.70;78.70
63277;DHT22;49403;51.046;13.780;2024-01-07T01:50:48;4.70;79.10
63277;DHT22;49403;51.046;13.780;2024-01-07T01:51:19;4.70;78.60
63277;DHT22;49403;51.046;13.780;2024-01-07T01:51:51;4.70;78.60
63277;DHT22;49403;51.046;13.780;2024-01-07T01:52:23;4.70;78.60
63277;DHT22;49403;51.046;13.780;2024-01-07T01:52:54;4.70;78.50
63277;DHT22;49403;51.046;13.780;2024-01-07T01:53:27;4.70;78.90
63277;DHT22;49403;51.046;13.780;2024-01-07T01:53:58;4.70;78.90
63277;DHT22;49403;51.046;13.780;2024-01-07T01:54:30;4.60;78.90
63277;DHT22;49403;51.046;13.780;2024-01-07T01:55:01;4.60;78.70
63277;DHT22;49403;51.046;13.780;2024-01-07T01:55:33;4.60;79.00
63277;DHT22;49403;51.046;13.780;2024-01-07T01:56:04;4.60;78.50
63277;DHT22;49403;51.046;13.780;2024-01-07T01:56:35;4.60;78.60
63277;DHT22;49403;51.046;13.780;2024-01-07T01:57:08;4.60;79.50
63277;DHT22;49403;51.046;13.780;2024-01-07T01:57:39;4.60;79.30
63277;DHT22;49403;51.046;13.780;2024-01-07T01:58:13;4.50;79.40
63277;DHT22;49403;51.046;13.780;2024-01-07T01:58:44;4.50;79.20
63277;DHT22;49403;51.046;13.780;2024-01-07T01:59:15;4.50;79.40
63277;DHT22;49403;51.046;13.780;2024-01-07T01:59:48;4.50;79.60
63277;DHT22;49403;51.046;13.780;2024-01-07T02:00:19;4.40;79.20
63277;DHT22;49403;51.046;13.780;2024-01-07T02:00:50;4.50;79.90
63277;DHT22;49403;51.046;13.780;2024-01-07T02:01:23;4.40;79.00
63277;DHT22;49403;51.046;13.780;2024-01-07T02:01:54;4.50;79.10
63277;DHT22;49403;51.046;13.780;2024-01-07T02:02:25;4.40;79.20
63277;DHT22;49403;51.046;13.780;2024-01-07T02:02:56;4.50;79.20
63277;DHT22;49403;51.046;13.780;2024-01-07T02:03:27;5.10;79.60
63277;DHT22;49403;51.046;13.780;2024-01-07T02:03:58;4.60;78.90
63277;DHT22;49403;51.046;13.780;2024-01-07T02:04:29;4.50;78.70
63277;DHT22;49403;51.046;13.780;2024-01-07T02:05:01;4.50;78.60
63277;DHT22;49403;51.046;13.780;2024-01-07T02:05:32;4.50;78.10
63277;DHT22;49403;51.046;13.780;2024-01-07T02:06:03;4.80;78.70
63277;DHT22;49403;51.046;13.780;2024-01-07T02:06:34;4.50;78.30
63277;DHT22;49403;51.046;13.780;2024-01-07T02:07:06;4.50;78.00
63277;DHT22;49403;51.046;13.780;2024-01-07T02:07:37;4.50;78.50
63277;DHT22;49403;51.046;13.780;2024-01-07T02:08:08;4.40;78.10
63277;DHT22;49403;51.046;13.780;2024-01-07T02:08:40;4.50;77.80
63277;DHT22;49403;51.046;13.780;2024-01-07T02:09:11;4.50;78.30
63277;DHT22;49403;51.046;13.780;2024-01-07T02:09:41;4.50;78.20
63277;DHT22;49403;51.046;13.780;2024-01-07T02:10:12;4.60;78.20
63277;DHT22;49403;51.046;13.780;2024-01-07T02:10:43;4.40;78.00
63277;DHT22;49403;51.046;13.780;2024-01-07T02:11:19;4.40;78.00
63277;DHT22;49403;51.046;13.780;2024-01-07T02:12:05;4.60;77.70
63277;DHT22;49403;51.046;13.780;2024-01-07T02:12:36;4.60;77.80
63277;DHT22;49403;51.046;13.780;2024-01-07T02:13:07;4.50;78.00
63277;DHT22;49403;51.046;13.780;2024-01-07T02:13:38;4.60;78.40
63277;DHT22;49403;51.046;13.780;2024-01-07T02:14:09;4.60;78.40
63277;DHT22;49403;51.046;13.780;2024-01-07T02:14:40;4.60;78.30
63277;DHT22;49403;51.046;13.780;2024-01-07T02:15:10;4.60;78.20
63277;DHT22;49403;51.046;13.780;2024-01-07T02:15:42;4.60;77.90
63277;DHT22;49403;51.046;13.780;2024-01-07T02:16:13;4.60;77.40
63277;DHT22;49403;51.046;13.780;2024-01-07T02:16:44;4.60;77.30
63277;DHT22;49403;51.046;13.780;2024-01-07T02:17:15;4.50;77.30
63277;DHT22;49403;51.046;13.780;2024-01-07T02:17:47;5.40;77.80
63277;DHT22;49403;51.046;13.780;2024-01-07T02:18:17;4.60;77.50
63277;DHT22;49403;51.046;13.780;2024-01-07T02:18:48;4.60;77.40
63277;DHT22;49403;51.046;13.780;2024-01-07T02:19:20;4.60;77.50
63277;DHT22;49403;51.046;13.780;2024-01-07T02:19:52;4.60;77.10
63277;DHT22;49403;51.046;13.780;2024-01-07T02:20:23;4.60;77.40
63277;DHT22;49403;51.046;13.780;2024-01-07T02:20:54;4.60;77.40
63277;DHT22;49403;51.046;13.780;2024-01-07T02:21:25;4.40;77.30
63277;DHT22;49403;51.046;13.780;2024-01-07T02:21:56;4.50;77.70
63277;DHT22;49403;51.046;13.780;2024-01-07T02:22:27;3.80;76.90
63277;DHT22;49403;51.046;13.780;2024-01-07T02:22:57;4.60;78.00
63277;DHT22;49403;51.046;13.780;2024-01-07T02:23:29;4.50;77.80
63277;DHT22;49403;51.046;13.780;2024-01-07T02:24:04;4.40;77.60
63277;DHT22;49403;51.046;13.780;2024-01-07T02:24:34;4.60;77.90
63277;DHT22;49403;51.046;13.780;2024-01-07T02:25:05;4.60;77.70
63277;DHT22;49403;51.046;13.780;2024-01-07T02:25:37;4.60;77.70
63277;DHT22;49403;51.046;13.780;2024-01-07T02:26:08;4.60;77.20
63277;DHT22;49403;51.046;13.780;2024-01-07T02:26:39;6.40;79.30
63277;DHT22;49403;51.046;13.780;2024-01-07T02:27:10;4.50;77.60
63277;DHT22;49403;51.046;13.780;2024-01-07T02:27:41;4.60;77.40
63277;DHT22;49403;51.046;13.780;2024-01-07T02:28:12;4.70;77.50
63277;DHT22;49403;51.046;13.780;2024-01-07T02:28:43;4.70;77.40
63277;DHT22;49403;51.046;13.780;2024-01-07T02:29:13;4.50;77.00
63277;DHT22;49403;51.046;13.780;2024-01-07T02:29:44;3.30;75.90
63277;DHT22;49403;51.046;13.780;2024-01-07T02:30:15;4.70;77.20
63277;DHT22;49403;51.046;13.780;2024-01-07T02:30:46;4.70;77.00
63277;DHT22;49403;51.046;13.780;2024-01-07T02:31:17;4.70;77.10
63277;DHT22;49403;51.046;13.780;2024-01-07T02:31:47;4.70;77.00
63277;DHT22;49403;51.046;13.780;2024-01-07T02:32:18;4.70;77.10
63277;DHT22;49403;51.046;13.780;2024-01-07T02:32:49;4.70;77.10
63277;DHT22;49403;51.046;13.780;2024-01-07T02:33:20;4.80;77.20
63277;DHT22;49403;51.046;13.780;2024-01-07T02:33:51;5.10;77.40
63277;DHT22;49403;51.046;13.780;2024-01-07T02:34:21;4.70;77.10
63277;DHT22;49403;51.046;13.780;2024-01-07T02:34:52;4.70;76.90
63277;DHT22;49403;51.046;13.780;2024-01-07T02:35:23;4.60;76.80
63277;DHT22;49403;51.046;13.780;2024-01-07T02:35:54;4.60;77.00
63277;DHT22;49403;51.046;13.780;2024-01-07T02:36:25;4.60;77.10
63277;DHT22;49403;51.046;13.780;2024-01-07T02:36:55;4.60;77.00
63277;DHT22;49403;51.046;13.780;2024-01-07T02:37:26;5.20;77.60
63277;DHT22;49403;51.046;13.780;2024-01-07T02:37:57;4.60;77.00
63277;DHT22;49403;51.046;13.780;2024-01-07T02:38:28;4.60;77.10
63277;DHT22;49403;51.046;13.780;2024-01-07T02:38:59;4.50;76.70
63277;DHT22;49403;51.046;13.780;2024-01-07T02:39:30;4.60;76.70
63277;DHT22;49403;51.046;13.780;2024-01-07T02:40:00;4.60;76.70
63277;DHT22;49403;51.046;13.780;2024-01-07T02:40:31;4.60;76.90
63277;DHT22;49403;51.046;13.780;2024-01-07T02:41:02;4.60;76.70
63277;DHT22;49403;51.046;13.780;2024-01-07T02:41:33;4.60;76.60
63277;DHT22;49403;51.046;13.780;2024-01-07T02:42:04;4.50;76.50
63277;DHT22;49403;51.046;13.780;2024-01-07T02:42:35;4.50;76.50
63277;DHT22;49403;51.046;13.780;2024-01-07T02:43:06;4.50;76.50
63277;DHT22;49403;51.046;13.780;2024-01-07T02:43:36;4.50;76.60
63277;DHT22;49403;51.046;13.780;2024-01-07T02:44:09;4.50;76.60
63277;DHT22;49403;51.046;13.780;2024-01-07T02:44:39;4.40;76.40
63277;DHT22;49403;51.046;13.780;2024-01-07T02:45:10;4.40;76.10
63277;DHT22;49403;51.046;13.780;2024-01-07T02:45:41;6.10;77.70
63277;DHT22;49403;51.046;13.780;2024-01-07T02:46:13;4.40;76.50
63277;DHT22;49403;51.046;13.780;2024-01-07T02:46:44;4.50;75.90
63277;DHT22;49403;51.046;13.780;2024-01-07T02:47:16;4.50;76.20
63277;DHT22;49403;51.046;13.780;2024-01-07T02:47:47;4.40;75.80
63277;DHT22;49403;51.046;13.780;2024-01-07T02:48:18;4.40;75.80
63277;DHT22;49403;51.046;13.780;2024-01-07T02:48:49;4.40;75.60
63277;DHT22;49403;51.046;13.780;2024-01-07T02:49:20;5.90;77.20
63277;DHT22;49403;51.046;13.780;2024-01-07T02:49:51;4.40;75.80
63277;DHT22;49403;51.046;13.780;2024-01-07T02:50:21;4.40;75.80
63277;DHT22;49403;51.046;13.780;2024-01-07T02:50:52;4.30;75.80
63277;DHT22;49403;51.046;13.780;2024-01-07T02:51:23;4.40;76.30
63277;DHT22;49403;51.046;13.780;2024-01-07T02:51:54;4.40;76.10
63277;DHT22;49403;51.046;13.780;2024-01-07T02:52:25;4.40;76.40
63277;DHT22;49403;51.046;13.780;2024-01-07T02:52:55;4.40;76.10
63277;DHT22;49403;51.046;13.780;2024-01-07T02:53:26;4.40;76.10
63277;DHT22;49403;51.046;13.780;2024-01-07T02:53:57;4.40;76.00
63277;DHT22;49403;51.046;13.780;2024-01-07T02:54:28;4.40;75.80
63277;DHT22;49403;51.046;13.780;2024-01-07T02:54:59;4.10;75.60
63277;DHT22;49403;51.046;13.780;2024-01-07T02:55:32;4.30;75.50
63277;DHT22;49403;51.046;13.780;2024-01-07T02:56:03;4.40;75.60
63277;DHT22;49403;51.046;13.780;2024-01-07T02:56:33;4.40;75.30
63277;DHT22;49403;51.046;13.780;2024-01-07T02:57:04;4.40;75.60
63277;DHT22;49403;51.046;13.780;2024-01-07T02:57:35;4.40;75.70
63277;DHT22;49403;51.046;13.780;2024-01-07T02:58:06;4.30;75.90
63277;DHT22;49403;51.046;13.780;2024-01-07T02:58:37;4.30;75.80
63277;DHT22;49403;51.046;13.780;2024-01-07T02:59:08;4.30;75.70
63277;DHT22;49403;51.046;13.780;2024-01-07T02:59:38;4.40;75.60
63277;DHT22;49403;51.046;13.780;2024-01-07T03:00:09;4.40;75.50
63277;DHT22;49403;51.046;13.780;2024-01-07T03:00:41;4.20;75.10
63277;DHT22;49403;51.046;13.780;2024-01-07T03:01:11;4.40;74.90
63277;DHT22;49403;51.046;13.780;2024-01-07T03:01:43;3.30;73.80
63277;DHT22;49403;51.046;13.780;2024-01-07T03:02:14;4.30;75.10
63277;DHT22;49403;51.046;13.780;2024-01-07T03:02:45;4.30;75.00
63277;DHT22;49403;51.046;13.780;2024-01-07T03:03:16;4.30;74.90
63277;DHT22;49403;51.046;13.780;2024-01-07T03:03:46;4.30;74.80
63277;DHT22;49403;51.046;13.780;2024-01-07T03:04:18;4.80;75.20
63277;DHT22;49403;51.046;13.780;2024-01-07T03:04:48;4.30;74.80
63277;DHT22;49403;51.046;13.780;2024-01-07T03:05:19;4.30;74.80
63277;DHT22;49403;51.046;13.780;2024-01-07T03:05:50;4.20;74.70
63277;DHT22;49403;51.046;13.780;2024-01-07T03:06:21;4.30;74.80
63277;DHT22;49403;51.046;13.780;2024-01-07T03:06:52;4.30;74.80
63277;DHT22;49403;51.046;13.780;2024-01-07T03:07:23;4.20;74.70
63277;DHT22;49403;51.046;13.780;2024-01-07T03:07:54;4.30;74.80
63277;DHT22;49403;51.046;13.780;2024-01-07T03:08:25;4.20;74.90
63277;DHT22;49403;51.046;13.780;2024-01-07T03:08:55;4.30;74.80
63277;DHT22;49403;51.046;13.780;2024-01-07T03:09:26;4.30;74.60
63277;DHT22;49403;51.046;13.780;2024-01-07T03:09:57;4.20;74.60
63277;DHT22;49403;51.046;13.780;2024-01-07T03:10:28;4.20;74.60
63277;DHT22;49403;51.046;13.780;2024-01-07T03:11:04;4.20;74.50
63277;DHT22;49403;51.046;13.780;2024-01-07T03:11:39;4.20;74.20
63277;DHT22;49403;51.046;13.780;2024-01-07T03:12:11;4.20;74.00
63277;DHT22;49403;51.046;13.780;2024-01-07T03:12:42;4.20;74.30
63277;DHT22;49403;51.046;13.780;2024-01-07T03:13:12;4.20;74.30
63277;DHT22;49403;51.046;13.780;2024-01-07T03:13:43;4.20;74.40
63277;DHT22;49403;51.046;13.780;2024-01-07T03:14:14;4.20;74.20
63277;DHT22;49403;51.046;13.780;2024-01-07T03:14:47;4.20;74.10
63277;DHT22;49403;51.046;13.780;2024-01-07T03:15:18;4.20;74.10
63277;DHT22;49403;51.046;13.780;2024-01-07T03:15:48;4.20;74.00
63277;DHT22;49403;51.046;13.780;2024-01-07T03:16:21;4.20;74.00